sensor_id;sensor_type;location;lat;lon;timestamp;temperature;humidity
44271;DHT22;29963;44.594;11.368;2023-11-21T00:01:24;10.50;99.90
44271;DHT22;29963;44.594;11.368;2023-11-21T00:03:50;10.60;99.90
44271;DHT22;29963;44.594;11.368;2023-11-21T00:43:20;10.40;99.90
44271;DHT22;29963;44.594;11.368;2023-11-21T00:45:46;10.30;99.90
44271;DHT22;29963;44.594;11.368;2023-11-21T00:48:14;10.30;99.90
44271;DHT22;29963;44.594;11.368;2023-11-21T00:50:40;10.30;99.90
44271;DHT22;29963;44.594;11.368;2023-11-21T00:53:06;10.30;99.90
44271;DHT22;29963;44.594;11.368;2023-11-21T00:55:33;10.30;99.90
44271;DHT22;29963;44.594;11.368;2023-11-21T00:57:59;10.50;99.90
44271;DHT22;29963;44.594;11.368;2023-11-21T01:00:25;10.50;99.90
44271;DHT22;29963;44.594;11.368;2023-11-21T01:02:51;10.50;99.90
44271;DHT22;29963;44.594;11.368;2023-11-21T01:05:17;10.50;99.90
44271;DHT22;29963;44.594;11.368;2023-11-21T01:07:43;10.60;99.90
44271;DHT22;29963;44.594;11.368;2023-11-21T01:10:09;10.50;99.90
44271;DHT22;29963;44.594;11.368;2023-11-21T01:12:36;10.60;99.90
44271;DHT22;29963;44.594;11.368;2023-11-21T01:15:04;10.60;99.90
44271;DHT22;29963;44.594;11.368;2023-11-21T01:17:33;10.60;99.90
44271;DHT22;29963;44.594;11.368;2023-11-21T01:20:00;10.70;99.90
44271;DHT22;29963;44.594;11.368;2023-11-21T01:22:26;10.80;99.90
44271;DHT22;29963;44.594;11.368;2023-11-21T01:24:53;10.80;99.90
44271;DHT22;29963;44.594;11.368;2023-11-21T01:27:18;10.90;99.90
44271;DHT22;29963;44.594;11.368;2023-11-21T01:29:44;10.90;99.90
44271;DHT22;29963;44.594;11.368;2023-11-21T01:32:10;11.00;99.90
44271;DHT22;29963;44.594;11.368;2023-11-21T01:34:36;10.90;99.90
44271;DHT22;29963;44.594;11.368;2023-11-21T01:37:02;10.90;99.90
44271;DHT22;29963;44.594;11.368;2023-11-21T01:39:30;10.90;99.90
44271;DHT22;29963;44.594;11.368;2023-11-21T01:41:57;11.00;99.90
44271;DHT22;29963;44.594;11.368;2023-11-21T01:44:24;10.90;99.90
44271;DHT22;29963;44.594;11.368;2023-11-21T01:46:50;11.00;99.90
44271;DHT22;29963;44.594;11.368;2023-11-21T01:49:16;11.00;99.90
44271;DHT22;29963;44.594;11.368;2023-11-21T01:51:45;11.00;99.90
44271;DHT22;29963;44.594;11.368;2023-11-21T01:54:12;11.00;99.90
44271;DHT22;29963;44.594;11.368;2023-11-21T01:56:38;11.10;99.90
44271;DHT22;29963;44.594;11.368;2023-11-21T01:59:05;11.10;99.90
44271;DHT22;29963;44.594;11.368;2023-11-21T02:01:33;11.10;99.90
44271;DHT22;29963;44.594;11.368;2023-11-21T02:03:59;11.10;99.90
44271;DHT22;29963;44.594;11.368;2023-11-21T02:06:25;11.20;99.90
44271;DHT22;29963;44.594;11.368;2023-11-21T02:08:51;11.10;99.90
44271;DHT22;29963;44.594;11.368;2023-11-21T02:11:17;11.10;99.90
44271;DHT22;29963;44.594;11.368;2023-11-21T02:13:44;11.00;99.90
44271;DHT22;29963;44.594;11.368;2023-11-21T02:16:12;11.00;99.90
44271;DHT22;29963;44.594;11.368;2023-11-21T02:18:39;11.00;99.90
44271;DHT22;29963;44.594;11.368;2023-11-21T02:21:05;10.90;99.90
44271;DHT22;29963;44.594;11.368;2023-11-21T02:23:31;10.90;99.90
44271;DHT22;29963;44.594;11.368;2023-11-21T02:25:57;10.80;99.90
44271;DHT22;29963;44.594;11.368;2023-11-21T02:28:29;10.70;99.90
44271;DHT22;29963;44.594;11.368;2023-11-21T02:30:55;10.70;99.90
44271;DHT22;29963;44.594;11.368;2023-11-21T02:33:22;10.70;99.90
44271;DHT22;29963;44.594;11.368;2023-11-21T02:35:48;10.70;99.90
44271;DHT22;29963;44.594;11.368;2023-11-21T02:38:14;10.70;99.90
44271;DHT22;29963;44.594;11.368;2023-11-21T02:40:41;10.70;99.90
44271;DHT22;29963;44.594;11.368;2023-11-21T02:43:07;10.70;99.90
44271;DHT22;29963;44.594;11.368;2023-11-21T02:45:33;10.80;99.90
44271;DHT22;29963;44.594;11.368;2023-11-21T02:47:58;10.90;99.90
44271;DHT22;29963;44.594;11.368;2023-11-21T02:50:24;10.80;99.90
44271;DHT22;29963;44.594;11.368;2023-11-21T02:52:50;10.80;99.90
44271;DHT22;29963;44.594;11.368;2023-11-21T02:55:16;10.80;99.90
44271;DHT22;29963;44.594;11.368;2023-11-21T02:57:42;10.80;99.90
44271;DHT22;29963;44.594;11.368;2023-11-21T03:00:08;10.80;99.90
44271;DHT22;29963;44.594;11.368;2023-11-21T03:02:35;10.90;99.90
44271;DHT22;29963;44.594;11.368;2023-11-21T03:05:05;10.90;99.90
44271;DHT22;29963;44.594;11.368;2023-11-21T03:07:31;10.90;99.90
44271;DHT22;29963;44.594;11.368;2023-11-21T03:09:56;10.90;99.90
44271;DHT22;29963;44.594;11.368;2023-11-21T03:12:22;11.00;99.90
44271;DHT22;29963;44.594;11.368;2023-11-21T03:14:47;11.00;99.90
44271;DHT22;29963;44.594;11.368;2023-11-21T03:17:13;11.10;99.90
44271;DHT22;29963;44.594;11.368;2023-11-21T03:19:41;11.10;99.90
44271;DHT22;29963;44.594;11.368;2023-11-21T03:22:07;11.10;99.90
44271;DHT22;29963;44.594;11.368;2023-11-21T03:24:34;11.10;99.90
44271;DHT22;29963;44.594;11.368;2023-11-21T03:27:00;11.10;99.90
44271;DHT22;29963;44.594;11.368;2023-11-21T03:29:26;11.10;99.90
44271;DHT22;29963;44.594;11.368;2023-11-21T03:31:52;11.10;99.90
44271;DHT22;29963;44.594;11.368;2023-11-21T03:34:27;11.00;99.90
44271;DHT22;29963;44.594;11.368;2023-11-21T03:36:53;11.00;99.90
44271;DHT22;29963;44.594;11.368;2023-11-21T03:39:20;11.00;99.90
44271;DHT22;29963;44.594;11.368;2023-11-21T03:41:46;11.00;99.90
44271;DHT22;29963;44.594;11.368;2023-11-21T03:44:12;11.10;99.90
44271;DHT22;29963;44.594;11.368;2023-11-21T03:46:38;11.10;99.90
44271;DHT22;29963;44.594;11.368;2023-11-21T03:49:04;11.00;99.90
44271;DHT22;29963;44.594;11.368;2023-11-21T03:51:29;11.00;99.90
44271;DHT22;29963;44.594;11.368;2023-11-21T03:53:55;11.00;99.90
44271;DHT22;29963;44.594;11.368;2023-11-21T03:56:21;11.00;99.90
44271;DHT22;29963;44.594;11.368;2023-11-21T03:58:50;11.00;99.90
44271;DHT22;29963;44.594;11.368;2023-11-21T04:01:22;11.00;99.90
44271;DHT22;29963;44.594;11.368;2023-11-21T04:03:48;11.00;99.90
44271;DHT22;29963;44.594;11.368;2023-11-21T04:06:14;11.00;99.90
44271;DHT22;29963;44.594;11.368;2023-11-21T04:08:40;11.00;99.90
44271;DHT22;29963;44.594;11.368;2023-11-21T04:11:06;11.00;99.90
44271;DHT22;29963;44.594;11.368;2023-11-21T04:13:31;11.00;99.90
44271;DHT22;29963;44.594;11.368;2023-11-21T04:15:57;11.10;99.90
44271;DHT22;29963;44.594;11.368;2023-11-21T04:18:23;11.10;99.90
44271;DHT22;29963;44.594;11.368;2023-11-21T04:20:49;11.10;99.90
44271;DHT22;29963;44.594;11.368;2023-11-21T04:23:16;11.00;99.90
44271;DHT22;29963;44.594;11.368;2023-11-21T04:25:42;11.00;99.90
44271;DHT22;29963;44.594;11.368;2023-11-21T04:28:08;10.90;99.90
44271;DHT22;29963;44.594;11.368;2023-11-21T04:30:33;10.80;99.90
44271;DHT22;29963;44.594;11.368;2023-11-21T04:32:59;10.70;99.90
44271;DHT22;29963;44.594;11.368;2023-11-21T04:35:25;10.80;99.90
44271;DHT22;29963;44.594;11.368;2023-11-21T04:37:50;10.80;99.90
44271;DHT22;29963;44.594;11.368;2023-11-21T04:40:16;10.80;99.90
44271;DHT22;29963;44.594;11.368;2023-11-21T04:42:42;10.70;99.90
44271;DHT22;29963;44.594;11.368;2023-11-21T04:45:08;10.80;99.90
44271;DHT22;29963;44.594;11.368;2023-11-21T04:47:35;10.70;99.90
44271;DHT22;29963;44.594;11.368;2023-11-21T04:50:02;10.70;99.90
44271;DHT22;29963;44.594;11.368;2023-11-21T04:52:29;10.60;99.90
44271;DHT22;29963;44.594;11.368;2023-11-21T04:54:54;10.60;99.90
44271;DHT22;29963;44.594;11.368;2023-11-21T04:57:23;10.60;99.90
44271;DHT22;29963;44.594;11.368;2023-11-21T04:59:49;10.60;99.90
44271;DHT22;29963;44.594;11.368;2023-11-21T05:02:16;10.50;99.90
44271;DHT22;29963;44.594;11.368;2023-11-21T05:04:42;10.50;99.90
44271;DHT22;29963;44.594;11.368;2023-11-21T05:07:08;10.50;99.90
44271;DHT22;29963;44.594;11.368;2023-11-21T05:09:34;10.50;99.90
44271;DHT22;29963;44.594;11.368;2023-11-21T05:12:01;10.50;99.90
44271;DHT22;29963;44.594;11.368;2023-11-21T05:14:27;10.60;99.90
44271;DHT22;29963;44.594;11.368;2023-11-21T05:16:53;10.60;99.90
44271;DHT22;29963;44.594;11.368;2023-11-21T05:19:18;10.60;99.90
44271;DHT22;29963;44.594;11.368;2023-11-21T05:21:44;10.60;99.90
44271;DHT22;29963;44.594;11.368;2023-11-21T05:24:10;10.60;99.90
44271;DHT22;29963;44.594;11.368;2023-11-21T05:26:35;10.60;99.90
44271;DHT22;29963;44.594;11.368;2023-11-21T05:29:01;10.50;99.90
44271;DHT22;29963;44.594;11.368;2023-11-21T05:31:27;10.50;99.90
44271;DHT22;29963;44.594;11.368;2023-11-21T05:33:52;10.40;99.90
44271;DHT22;29963;44.594;11.368;2023-11-21T05:36:18;10.40;99.90
44271;DHT22;29963;44.594;11.368;2023-11-21T05:38:44;10.30;99.90
44271;DHT22;29963;44.594;11.368;2023-11-21T05:41:10;10.30;99.90
44271;DHT22;29963;44.594;11.368;2023-11-21T05:43:39;10.30;99.90
44271;DHT22;29963;44.594;11.368;2023-11-21T05:46:05;10.30;99.90
44271;DHT22;29963;44.594;11.368;2023-11-21T05:48:32;10.30;99.90
44271;DHT22;29963;44.594;11.368;2023-11-21T05:50:58;10.30;99.90
44271;DHT22;29963;44.594;11.368;2023-11-21T05:53:24;10.30;99.90
44271;DHT22;29963;44.594;11.368;2023-11-21T05:55:50;10.30;99.90
44271;DHT22;29963;44.594;11.368;2023-11-21T05:58:16;10.30;99.90
44271;DHT22;29963;44.594;11.368;2023-11-21T06:00:42;10.20;99.90
44271;DHT22;29963;44.594;11.368;2023-11-21T06:03:07;10.20;99.90
44271;DHT22;29963;44.594;11.368;2023-11-21T06:05:33;10.10;99.90
44271;DHT22;29963;44.594;11.368;2023-11-21T06:07:59;10.20;99.90
44271;DHT22;29963;44.594;11.368;2023-11-21T06:10:26;10.20;99.90
44271;DHT22;29963;44.594;11.368;2023-11-21T06:12:52;10.20;99.90
44271;DHT22;29963;44.594;11.368;2023-11-21T06:15:18;10.20;99.90
44271;DHT22;29963;44.594;11.368;2023-11-21T06:17:48;10.10;99.90
44271;DHT22;29963;44.594;11.368;2023-11-21T06:20:21;10.00;99.90
44271;DHT22;29963;44.594;11.368;2023-11-21T06:22:48;10.10;99.90
44271;DHT22;29963;44.594;11.368;2023-11-21T06:25:14;10.10;99.90
44271;DHT22;29963;44.594;11.368;2023-11-21T06:27:43;10.20;99.90
44271;DHT22;29963;44.594;11.368;2023-11-21T06:30:13;10.20;99.90
44271;DHT22;29963;44.594;11.368;2023-11-21T06:32:41;10.20;99.90
44271;DHT22;29963;44.594;11.368;2023-11-21T06:35:07;10.30;99.90
44271;DHT22;29963;44.594;11.368;2023-11-21T06:37:34;10.30;99.90
44271;DHT22;29963;44.594;11.368;2023-11-21T06:40:00;10.40;99.90
44271;DHT22;29963;44.594;11.368;2023-11-21T06:42:26;10.30;99.90
44271;DHT22;29963;44.594;11.368;2023-11-21T06:44:52;10.30;99.90
44271;DHT22;29963;44.594;11.368;2023-11-21T06:47:19;10.30;99.90
44271;DHT22;29963;44.594;11.368;2023-11-21T06:49:51;10.30;99.90
44271;DHT22;29963;44.594;11.368;2023-11-21T06:52:17;10.20;99.90
44271;DHT22;29963;44.594;11.368;2023-11-21T06:54:43;10.20;99.90
44271;DHT22;29963;44.594;11.368;2023-11-21T06:57:09;10.20;99.90
44271;DHT22;29963;44.594;11.368;2023-11-21T06:59:35;10.30;99.90
44271;DHT22;29963;44.594;11.368;2023-11-21T07:02:01;10.30;99.90
44271;DHT22;29963;44.594;11.368;2023-11-21T07:04:27;10.30;99.90
44271;DHT22;29963;44.594;11.368;2023-11-21T07:06:53;10.30;99.90
44271;DHT22;29963;44.594;11.368;2023-11-21T07:09:20;10.30;99.90
44271;DHT22;29963;44.594;11.368;2023-11-21T07:11:48;10.30;99.90
44271;DHT22;29963;44.594;11.368;2023-11-21T07:14:14;10.30;99.90
44271;DHT22;29963;44.594;11.368;2023-11-21T07:16:40;10.30;99.90
44271;DHT22;29963;44.594;11.368;2023-11-21T07:19:09;10.40;99.90
44271;DHT22;29963;44.594;11.368;2023-11-21T07:21:35;10.40;99.90
44271;DHT22;29963;44.594;11.368;2023-11-21T07:24:02;10.50;99.90
44271;DHT22;29963;44.594;11.368;2023-11-21T07:26:28;10.50;99.90
44271;DHT22;29963;44.594;11.368;2023-11-21T07:28:54;10.50;99.90
44271;DHT22;29963;44.594;11.368;2023-11-21T07:31:21;10.50;99.90
44271;DHT22;29963;44.594;11.368;2023-11-21T07:33:47;10.50;99.90
44271;DHT22;29963;44.594;11.368;2023-11-21T07:36:14;10.40;99.90
44271;DHT22;29963;44.594;11.368;2023-11-21T07:38:40;10.40;99.90
44271;DHT22;29963;44.594;11.368;2023-11-21T07:41:06;10.40;99.90
44271;DHT22;29963;44.594;11.368;2023-11-21T07:43:34;10.40;99.90
44271;DHT22;29963;44.594;11.368;2023-11-21T07:46:04;10.40;99.90
44271;DHT22;29963;44.594;11.368;2023-11-21T07:48:30;10.50;99.90
44271;DHT22;29963;44.594;11.368;2023-11-21T07:50:58;10.50;99.90
44271;DHT22;29963;44.594;11.368;2023-11-21T07:53:24;10.60;99.90
44271;DHT22;29963;44.594;11.368;2023-11-21T07:56:04;10.70;99.90
44271;DHT22;29963;44.594;11.368;2023-11-21T07:58:30;10.70;99.90
44271;DHT22;29963;44.594;11.368;2023-11-21T08:00:56;10.80;99.90
44271;DHT22;29963;44.594;11.368;2023-11-21T08:03:22;10.80;99.90
44271;DHT22;29963;44.594;11.368;2023-11-21T08:05:48;10.80;99.90
44271;DHT22;29963;44.594;11.368;2023-11-21T08:08:16;10.90;99.90
44271;DHT22;29963;44.594;11.368;2023-11-21T08:10:44;10.80;99.90
44271;DHT22;29963;44.594;11.368;2023-11-21T08:13:19;10.70;99.90
44271;DHT22;29963;44.594;11.368;2023-11-21T08:15:45;10.70;99.90
44271;DHT22;29963;44.594;11.368;2023-11-21T08:18:11;10.70;99.90
44271;DHT22;29963;44.594;11.368;2023-11-21T08:20:38;10.80;99.90
44271;DHT22;29963;44.594;11.368;2023-11-21T08:23:05;10.70;99.90
44271;DHT22;29963;44.594;11.368;2023-11-21T08:25:32;10.80;99.90
44271;DHT22;29963;44.594;11.368;2023-11-21T08:27:59;10.80;99.90
44271;DHT22;29963;44.594;11.368;2023-11-21T08:30:25;10.80;99.90
44271;DHT22;29963;44.594;11.368;2023-11-21T08:32:50;10.80;99.90
44271;DHT22;29963;44.594;11.368;2023-11-21T08:35:19;10.80;99.90
44271;DHT22;29963;44.594;11.368;2023-11-21T08:37:45;10.80;99.90
44271;DHT22;29963;44.594;11.368;2023-11-21T08:40:11;10.80;99.90
44271;DHT22;29963;44.594;11.368;2023-11-21T08:42:42;10.80;99.90
44271;DHT22;29963;44.594;11.368;2023-11-21T08:45:08;10.70;99.90
44271;DHT22;29963;44.594;11.368;2023-11-21T08:47:35;10.70;99.90
44271;DHT22;29963;44.594;11.368;2023-11-21T08:50:02;10.70;99.90
44271;DHT22;29963;44.594;11.368;2023-11-21T08:52:28;10.70;99.90
44271;DHT22;29963;44.594;11.368;2023-11-21T08:54:53;10.60;99.90
44271;DHT22;29963;44.594;11.368;2023-11-21T08:57:25;10.60;99.90
44271;DHT22;29963;44.594;11.368;2023-11-21T08:59:51;10.60;99.90
44271;DHT22;29963;44.594;11.368;2023-11-21T09:02:25;10.60;99.90
44271;DHT22;29963;44.594;11.368;2023-11-21T09:04:52;10.70;99.90
44271;DHT22;29963;44.594;11.368;2023-11-21T09:07:18;10.70;99.90
44271;DHT22;29963;44.594;11.368;2023-11-21T09:09:46;10.70;99.90
44271;DHT22;29963;44.594;11.368;2023-11-21T09:12:12;10.80;99.90
44271;DHT22;29963;44.594;11.368;2023-11-21T09:14:38;10.90;99.90
44271;DHT22;29963;44.594;11.368;2023-11-21T09:17:05;10.90;99.90
44271;DHT22;29963;44.594;11.368;2023-11-21T09:19:37;10.90;99.90
44271;DHT22;29963;44.594;11.368;2023-11-21T09:22:03;10.90;99.90
44271;DHT22;29963;44.594;11.368;2023-11-21T09:24:28;10.90;99.90
44271;DHT22;29963;44.594;11.368;2023-11-21T09:26:54;10.90;99.90
44271;DHT22;29963;44.594;11.368;2023-11-21T09:29:20;11.00;99.90
44271;DHT22;29963;44.594;11.368;2023-11-21T09:31:45;10.90;99.90
44271;DHT22;29963;44.594;11.368;2023-11-21T09:34:11;10.80;99.90
44271;DHT22;29963;44.594;11.368;2023-11-21T09:36:37;10.70;99.90
44271;DHT22;29963;44.594;11.368;2023-11-21T09:39:04;10.70;99.90
44271;DHT22;29963;44.594;11.368;2023-11-21T09:41:49;10.80;99.90
44271;DHT22;29963;44.594;11.368;2023-11-21T09:44:18;10.80;99.90
44271;DHT22;29963;44.594;11.368;2023-11-21T09:46:47;10.80;99.90
44271;DHT22;29963;44.594;11.368;2023-11-21T09:49:18;10.80;99.90
44271;DHT22;29963;44.594;11.368;2023-11-21T09:51:47;10.90;99.90
44271;DHT22;29963;44.594;11.368;2023-11-21T09:54:14;10.80;99.90
44271;DHT22;29963;44.594;11.368;2023-11-21T09:56:41;10.90;99.90
44271;DHT22;29963;44.594;11.368;2023-11-21T09:59:11;10.90;99.90
44271;DHT22;29963;44.594;11.368;2023-11-21T10:01:38;10.90;99.90
44271;DHT22;29963;44.594;11.368;2023-11-21T10:04:06;10.90;99.90
44271;DHT22;29963;44.594;11.368;2023-11-21T10:06:40;10.90;99.90
44271;DHT22;29963;44.594;11.368;2023-11-21T10:09:14;10.90;99.90
44271;DHT22;29963;44.594;11.368;2023-11-21T10:11:42;10.80;99.90
44271;DHT22;29963;44.594;11.368;2023-11-21T10:14:10;10.80;99.90
44271;DHT22;29963;44.594;11.368;2023-11-21T10:16:38;10.70;99.90
44271;DHT22;29963;44.594;11.368;2023-11-21T10:19:05;10.70;99.90
44271;DHT22;29963;44.594;11.368;2023-11-21T10:21:33;10.70;99.90
44271;DHT22;29963;44.594;11.368;2023-11-21T10:23:59;10.70;99.90
44271;DHT22;29963;44.594;11.368;2023-11-21T10:26:29;10.80;99.90
44271;DHT22;29963;44.594;11.368;2023-11-21T10:29:01;10.80;99.90
44271;DHT22;29963;44.594;11.368;2023-11-21T10:31:30;10.80;99.90
44271;DHT22;29963;44.594;11.368;2023-11-21T10:34:16;10.80;99.90
44271;DHT22;29963;44.594;11.368;2023-11-21T10:36:42;10.80;99.90
44271;DHT22;29963;44.594;11.368;2023-11-21T10:39:08;10.80;99.90
44271;DHT22;29963;44.594;11.368;2023-11-21T10:41:35;10.80;99.90
44271;DHT22;29963;44.594;11.368;2023-11-21T10:44:02;10.80;99.90
44271;DHT22;29963;44.594;11.368;2023-11-21T10:46:34;10.80;99.90
44271;DHT22;29963;44.594;11.368;2023-11-21T10:49:00;10.80;99.90
44271;DHT22;29963;44.594;11.368;2023-11-21T10:51:27;10.80;99.90
44271;DHT22;29963;44.594;11.368;2023-11-21T10:53:54;10.80;99.90
44271;DHT22;29963;44.594;11.368;2023-11-21T10:56:23;10.90;99.90
44271;DHT22;29963;44.594;11.368;2023-11-21T10:58:50;10.80;99.90
44271;DHT22;29963;44.594;11.368;2023-11-21T11:01:19;10.80;99.90
44271;DHT22;29963;44.594;11.368;2023-11-21T11:03:47;10.80;99.90
44271;DHT22;29963;44.594;11.368;2023-11-21T11:06:14;10.70;99.90
44271;DHT22;29963;44.594;11.368;2023-11-21T11:08:41;10.70;99.90
44271;DHT22;29963;44.594;11.368;2023-11-21T11:11:07;10.60;99.90
44271;DHT22;29963;44.594;11.368;2023-11-21T11:13:35;10.50;99.90
44271;DHT22;29963;44.594;11.368;2023-11-21T11:16:03;10.50;99.90
44271;DHT22;29963;44.594;11.368;2023-11-21T11:18:33;10.40;99.90
44271;DHT22;29963;44.594;11.368;2023-11-21T11:26:57;10.40;99.90
44271;DHT22;29963;44.594;11.368;2023-11-21T11:30:04;10.40;99.90
44271;DHT22;29963;44.594;11.368;2023-11-21T11:35:12;10.40;99.90
44271;DHT22;29963;44.594;11.368;2023-11-21T11:37:43;10.40;99.90
44271;DHT22;29963;44.594;11.368;2023-11-21T11:40:11;10.50;99.90
44271;DHT22;29963;44.594;11.368;2023-11-21T11:42:37;10.60;99.90
44271;DHT22;29963;44.594;11.368;2023-11-21T11:45:17;10.70;99.90
44271;DHT22;29963;44.594;11.368;2023-11-21T11:47:45;10.80;99.90
44271;DHT22;29963;44.594;11.368;2023-11-21T11:50:13;10.90;99.90
44271;DHT22;29963;44.594;11.368;2023-11-21T11:52:47;10.90;99.90
44271;DHT22;29963;44.594;11.368;2023-11-21T11:55:14;10.90;99.90
44271;DHT22;29963;44.594;11.368;2023-11-21T11:57:44;11.00;99.90
44271;DHT22;29963;44.594;11.368;2023-11-21T12:00:20;10.90;99.90
44271;DHT22;29963;44.594;11.368;2023-11-21T12:02:52;10.90;99.90
44271;DHT22;29963;44.594;11.368;2023-11-21T12:05:21;10.80;99.90
44271;DHT22;29963;44.594;11.368;2023-11-21T12:07:56;10.80;99.90
44271;DHT22;29963;44.594;11.368;2023-11-21T12:10:23;10.70;99.90
44271;DHT22;29963;44.594;11.368;2023-11-21T12:12:57;10.60;99.90
44271;DHT22;29963;44.594;11.368;2023-11-21T12:15:24;10.60;99.90
44271;DHT22;29963;44.594;11.368;2023-11-21T12:17:51;10.70;99.90
44271;DHT22;29963;44.594;11.368;2023-11-21T12:20:22;10.70;99.90
44271;DHT22;29963;44.594;11.368;2023-11-21T12:22:52;10.80;99.90
44271;DHT22;29963;44.594;11.368;2023-11-21T12:25:20;10.80;99.90
44271;DHT22;29963;44.594;11.368;2023-11-21T12:27:51;10.90;99.90
44271;DHT22;29963;44.594;11.368;2023-11-21T12:30:25;10.90;99.90
44271;DHT22;29963;44.594;11.368;2023-11-21T12:32:54;10.90;99.90
44271;DHT22;29963;44.594;11.368;2023-11-21T12:35:23;10.90;99.90
44271;DHT22;29963;44.594;11.368;2023-11-21T12:37:50;11.00;99.90
44271;DHT22;29963;44.594;11.368;2023-11-21T12:40:17;11.00;99.90
44271;DHT22;29963;44.594;11.368;2023-11-21T12:42:47;10.90;99.90
44271;DHT22;29963;44.594;11.368;2023-11-21T12:47:43;10.90;99.90
44271;DHT22;29963;44.594;11.368;2023-11-21T12:50:10;10.90;99.90
44271;DHT22;29963;44.594;11.368;2023-11-21T12:52:46;10.90;99.90
44271;DHT22;29963;44.594;11.368;2023-11-21T12:55:22;10.90;99.90
44271;DHT22;29963;44.594;11.368;2023-11-21T12:57:49;11.00;99.90
44271;DHT22;29963;44.594;11.368;2023-11-21T13:00:18;10.90;99.90
44271;DHT22;29963;44.594;11.368;2023-11-21T13:02:56;11.00;99.90
44271;DHT22;29963;44.594;11.368;2023-11-21T13:05:30;10.90;99.90
44271;DHT22;29963;44.594;11.368;2023-11-21T13:08:02;11.00;99.90
44271;DHT22;29963;44.594;11.368;2023-11-21T13:10:30;11.00;99.90
44271;DHT22;29963;44.594;11.368;2023-11-21T13:13:00;11.00;99.90
44271;DHT22;29963;44.594;11.368;2023-11-21T13:15:29;11.00;99.90
44271;DHT22;29963;44.594;11.368;2023-11-21T13:17:57;11.00;99.90
44271;DHT22;29963;44.594;11.368;2023-11-21T13:20:24;11.00;99.90
44271;DHT22;29963;44.594;11.368;2023-11-21T13:22:52;11.00;99.90
44271;DHT22;29963;44.594;11.368;2023-11-21T13:25:26;11.00;99.90
44271;DHT22;29963;44.594;11.368;2023-11-21T13:27:54;11.00;99.90
44271;DHT22;29963;44.594;11.368;2023-11-21T13:30:21;11.00;99.90
44271;DHT22;29963;44.594;11.368;2023-11-21T13:32:52;11.00;99.90
44271;DHT22;29963;44.594;11.368;2023-11-21T13:35:21;11.00;99.90
44271;DHT22;29963;44.594;11.368;2023-11-21T13:37:50;11.10;99.90
44271;DHT22;29963;44.594;11.368;2023-11-21T13:40:22;11.10;99.90
44271;DHT22;29963;44.594;11.368;2023-11-21T13:42:53;11.10;99.90
44271;DHT22;29963;44.594;11.368;2023-11-21T13:45:22;11.10;99.90
44271;DHT22;29963;44.594;11.368;2023-11-21T13:47:49;11.00;99.90
44271;DHT22;29963;44.594;11.368;2023-11-21T13:50:18;11.00;99.90
44271;DHT22;29963;44.594;11.368;2023-11-21T13:52:49;11.00;99.90
44271;DHT22;29963;44.594;11.368;2023-11-21T13:55:16;11.00;99.90
44271;DHT22;29963;44.594;11.368;2023-11-21T13:57:44;11.10;99.90
44271;DHT22;29963;44.594;11.368;2023-11-21T14:00:18;11.10;99.90
44271;DHT22;29963;44.594;11.368;2023-11-21T14:03:02;11.10;99.90
44271;DHT22;29963;44.594;11.368;2023-11-21T14:05:31;11.20;99.90
44271;DHT22;29963;44.594;11.368;2023-11-21T14:07:59;11.20;99.90
44271;DHT22;29963;44.594;11.368;2023-11-21T14:10:32;11.20;99.90
44271;DHT22;29963;44.594;11.368;2023-11-21T14:13:09;11.20;99.90
44271;DHT22;29963;44.594;11.368;2023-11-21T14:15:39;11.20;99.90
44271;DHT22;29963;44.594;11.368;2023-11-21T14:18:08;11.20;99.90
44271;DHT22;29963;44.594;11.368;2023-11-21T14:20:39;11.20;99.90
44271;DHT22;29963;44.594;11.368;2023-11-21T14:23:06;11.20;99.90
44271;DHT22;29963;44.594;11.368;2023-11-21T14:25:34;11.20;99.90
44271;DHT22;29963;44.594;11.368;2023-11-21T14:28:02;11.10;99.90
44271;DHT22;29963;44.594;11.368;2023-11-21T14:30:29;11.10;99.90
44271;DHT22;29963;44.594;11.368;2023-11-21T14:33:01;11.10;99.90
44271;DHT22;29963;44.594;11.368;2023-11-21T14:35:27;11.10;99.90
44271;DHT22;29963;44.594;11.368;2023-11-21T14:37:53;11.10;99.90
44271;DHT22;29963;44.594;11.368;2023-11-21T14:40:19;11.10;99.90
44271;DHT22;29963;44.594;11.368;2023-11-21T14:42:50;11.10;99.90
44271;DHT22;29963;44.594;11.368;2023-11-21T14:45:19;11.10;99.90
44271;DHT22;29963;44.594;11.368;2023-11-21T14:47:46;11.10;99.90
44271;DHT22;29963;44.594;11.368;2023-11-21T14:50:25;11.10;99.90
44271;DHT22;29963;44.594;11.368;2023-11-21T14:53:17;11.00;99.90
44271;DHT22;29963;44.594;11.368;2023-11-21T14:56:03;11.00;99.90
44271;DHT22;29963;44.594;11.368;2023-11-21T14:58:29;11.00;99.90
44271;DHT22;29963;44.594;11.368;2023-11-21T15:00:56;11.00;99.90
44271;DHT22;29963;44.594;11.368;2023-11-21T15:03:26;11.00;99.90
44271;DHT22;29963;44.594;11.368;2023-11-21T15:05:59;11.00;99.90
44271;DHT22;29963;44.594;11.368;2023-11-21T15:08:42;11.00;99.90
44271;DHT22;29963;44.594;11.368;2023-11-21T15:11:08;11.00;99.90
44271;DHT22;29963;44.594;11.368;2023-11-21T15:13:40;10.90;99.90
44271;DHT22;29963;44.594;11.368;2023-11-21T15:16:08;10.90;99.90
44271;DHT22;29963;44.594;11.368;2023-11-21T15:18:36;10.90;99.90
44271;DHT22;29963;44.594;11.368;2023-11-21T15:21:02;10.90;99.90
44271;DHT22;29963;44.594;11.368;2023-11-21T15:23:34;11.00;99.90
44271;DHT22;29963;44.594;11.368;2023-11-21T15:26:00;11.00;99.90
44271;DHT22;29963;44.594;11.368;2023-11-21T15:28:27;11.00;99.90
44271;DHT22;29963;44.594;11.368;2023-11-21T15:30:54;11.00;99.90
44271;DHT22;29963;44.594;11.368;2023-11-21T15:33:19;11.00;99.90
44271;DHT22;29963;44.594;11.368;2023-11-21T15:35:45;11.00;99.90
44271;DHT22;29963;44.594;11.368;2023-11-21T15:38:11;10.90;99.90
44271;DHT22;29963;44.594;11.368;2023-11-21T15:40:38;10.80;99.90
44271;DHT22;29963;44.594;11.368;2023-11-21T15:43:04;10.80;99.90
44271;DHT22;29963;44.594;11.368;2023-11-21T15:45:32;10.80;99.90
44271;DHT22;29963;44.594;11.368;2023-11-21T15:47:58;10.70;99.90
44271;DHT22;29963;44.594;11.368;2023-11-21T15:50:24;10.70;99.90
44271;DHT22;29963;44.594;11.368;2023-11-21T15:52:51;10.70;99.90
44271;DHT22;29963;44.594;11.368;2023-11-21T15:55:17;10.70;99.90
44271;DHT22;29963;44.594;11.368;2023-11-21T15:57:43;10.70;99.90
44271;DHT22;29963;44.594;11.368;2023-11-21T16:00:09;10.70;99.90
44271;DHT22;29963;44.594;11.368;2023-11-21T16:02:42;10.70;99.90
44271;DHT22;29963;44.594;11.368;2023-11-21T16:05:09;10.70;99.90
44271;DHT22;29963;44.594;11.368;2023-11-21T16:07:35;10.70;99.90